TimePST,TemperatureF,Dew PointF,Humidity,Sea Level PressureIn,VisibilityMPH,Wind Direction,Wind SpeedMPH,Gust SpeedMPH,PrecipitationIn,Events,Conditions,WindDirDegrees,DateUTC
12:53 AM,45.0,42.1,90,30.17,8.0,ESE,11.5,-,0.05,Rain,Light Rain,120,2012-11-12 08:53:00
1:53 AM,45.0,42.1,90,30.17,10.0,ESE,10.4,-,0.04,Rain,Light Rain,120,2012-11-12 09:53:00
2:53 AM,45.0,43.0,93,30.17,7.0,SE,8.1,-,0.08,Rain,Rain,130,2012-11-12 10:53:00
3:53 AM,45.0,42.1,90,30.16,7.0,SE,10.4,-,0.06,Rain,Light Rain,130,2012-11-12 11:53:00
4:40 AM,44.6,42.8,93,30.17,6.0,ESE,5.8,-,0.04,Rain,Rain,120,2012-11-12 12:40:00
4:53 AM,45.0,43.0,93,30.17,5.0,ESE,8.1,-,0.07,Rain,Rain,120,2012-11-12 12:53:00
5:53 AM,45.0,43.0,93,30.17,6.0,SE,10.4,-,0.09,Rain,Light Rain,130,2012-11-12 13:53:00
6:15 AM,44.6,42.8,93,30.17,9.0,SE,6.9,-,0.00,Rain,Light Rain,130,2012-11-12 14:15:00
6:35 AM,44.6,42.8,93,30.17,4.0,SE,8.1,-,0.02,Rain,Light Rain,130,2012-11-12 14:35:00
6:43 AM,44.6,42.8,93,30.17,4.0,SE,8.1,-,0.02,Rain,Light Rain,130,2012-11-12 14:43:00
6:53 AM,44.1,42.1,93,30.17,3.0,ESE,9.2,-,0.03,Rain,Light Rain,110,2012-11-12 14:53:00
7:53 AM,45.0,43.0,93,30.18,10.0,ESE,8.1,-,0.03,Rain,Light Rain,120,2012-11-12 15:53:00
8:53 AM,46.0,43.0,89,30.18,10.0,SE,9.2,-,0.00,,Overcast,130,2012-11-12 16:53:00
9:18 AM,46.4,44.6,93,30.18,10.0,ESE,4.6,-,N/A,,Overcast,120,2012-11-12 17:18:00
9:46 AM,48.2,44.6,87,30.18,10.0,SE,3.5,-,N/A,,Overcast,140,2012-11-12 17:46:00
9:53 AM,48.9,45.0,86,30.19,10.0,SE,5.8,-,N/A,,Overcast,130,2012-11-12 17:53:00
10:53 AM,50.0,46.0,86,30.19,10.0,SE,3.5,-,0.00,,Overcast,130,2012-11-12 18:53:00
11:53 AM,52.0,46.0,80,30.19,10.0,SSE,4.6,-,N/A,,Overcast,160,2012-11-12 19:53:00
12:53 PM,53.1,46.0,77,30.19,10.0,SSW,5.8,-,N/A,,Overcast,200,2012-11-12 20:53:00
1:53 PM,53.1,46.9,80,30.20,10.0,SW,6.9,-,N/A,,Overcast,220,2012-11-12 21:53:00
2:53 PM,52.0,46.9,83,30.19,10.0,SE,6.9,-,N/A,,Overcast,130,2012-11-12 22:53:00
3:11 PM,50.0,46.4,87,30.19,10.0,ESE,4.6,-,N/A,,Overcast,120,2012-11-12 23:11:00
3:53 PM,48.9,46.0,90,30.21,10.0,ESE,5.8,-,0.00,Rain,Light Rain,120,2012-11-12 23:53:00
5:53 PM,48.9,46.9,93,30.21,10.0,ESE,5.8,-,N/A,,Overcast,110,2012-11-13 01:53:00
6:07 PM,48.2,46.4,93,30.22,10.0,ESE,4.6,-,N/A,,Overcast,110,2012-11-13 02:07:00
6:40 PM,48.2,46.4,93,30.22,9.0,Calm,Calm,-,0.00,Rain,Light Rain,0,2012-11-13 02:40:00
6:53 PM,48.9,46.9,93,30.22,10.0,Calm,Calm,-,0.00,,Overcast,0,2012-11-13 02:53:00
7:06 PM,48.2,46.4,93,30.22,10.0,Calm,Calm,-,N/A,,Overcast,0,2012-11-13 03:06:00
7:53 PM,48.9,46.9,93,30.23,10.0,ESE,3.5,-,N/A,,Overcast,120,2012-11-13 03:53:00
8:53 PM,48.9,46.9,93,30.24,10.0,Calm,Calm,-,N/A,,Overcast,0,2012-11-13 04:53:00
9:31 PM,48.2,46.4,93,30.24,10.0,Calm,Calm,-,N/A,,Overcast,0,2012-11-13 05:31:00
9:53 PM,48.9,46.9,93,30.25,10.0,ESE,3.5,-,N/A,,Overcast,120,2012-11-13 05:53:00
10:53 PM,50.0,46.9,89,30.26,10.0,East,3.5,-,N/A,,Overcast,100,2012-11-13 06:53:00
11:04 PM,48.2,46.4,93,30.25,10.0,ESE,5.8,-,N/A,,Overcast,120,2012-11-13 07:04:00
11:35 PM,50.0,48.2,94,30.26,10.0,East,3.5,-,N/A,,Overcast,80,2012-11-13 07:35:00
11:53 PM,50.0,48.0,93,30.26,10.0,ESE,3.5,-,N/A,,Overcast,120,2012-11-13 07:53:00